sensor_id;sensor_type;location;lat;lon;timestamp;temperature;humidity
48936;DHT22;34745;52.276;10.528;2022-09-09T00:01:23;15.10;99.90
48936;DHT22;34745;52.276;10.528;2022-09-09T00:03:59;15.00;99.90
48936;DHT22;34745;52.276;10.528;2022-09-09T00:06:30;15.00;99.90
48936;DHT22;34745;52.276;10.528;2022-09-09T00:09:03;15.00;99.90
48936;DHT22;34745;52.276;10.528;2022-09-09T00:11:39;15.00;99.90
48936;DHT22;34745;52.276;10.528;2022-09-09T00:14:13;15.00;99.90
48936;DHT22;34745;52.276;10.528;2022-09-09T00:16:47;15.00;99.90
48936;DHT22;34745;52.276;10.528;2022-09-09T00:19:21;15.00;99.90
48936;DHT22;34745;52.276;10.528;2022-09-09T00:21:56;15.20;99.90
48936;DHT22;34745;52.276;10.528;2022-09-09T00:24:29;15.00;99.90
48936;DHT22;34745;52.276;10.528;2022-09-09T00:27:04;15.00;99.90
48936;DHT22;34745;52.276;10.528;2022-09-09T00:29:36;15.00;99.90
48936;DHT22;34745;52.276;10.528;2022-09-09T00:32:12;15.00;99.90
48936;DHT22;34745;52.276;10.528;2022-09-09T00:34:48;15.00;99.90
48936;DHT22;34745;52.276;10.528;2022-09-09T00:37:15;15.00;99.90
48936;DHT22;34745;52.276;10.528;2022-09-09T00:39:46;15.10;99.90
48936;DHT22;34745;52.276;10.528;2022-09-09T00:42:16;15.10;99.90
48936;DHT22;34745;52.276;10.528;2022-09-09T00:44:52;15.10;99.90
48936;DHT22;34745;52.276;10.528;2022-09-09T00:47:46;15.00;99.90
48936;DHT22;34745;52.276;10.528;2022-09-09T00:50:24;15.00;99.90
48936;DHT22;34745;52.276;10.528;2022-09-09T00:53:02;15.00;99.90
48936;DHT22;34745;52.276;10.528;2022-09-09T00:55:39;15.00;99.90
48936;DHT22;34745;52.276;10.528;2022-09-09T00:58:08;15.00;99.90
48936;DHT22;34745;52.276;10.528;2022-09-09T01:00:39;15.00;99.90
48936;DHT22;34745;52.276;10.528;2022-09-09T01:03:22;15.00;99.90
48936;DHT22;34745;52.276;10.528;2022-09-09T01:06:01;15.00;99.90
48936;DHT22;34745;52.276;10.528;2022-09-09T01:11:37;15.00;99.90
48936;DHT22;34745;52.276;10.528;2022-09-09T01:14:16;14.90;99.90
48936;DHT22;34745;52.276;10.528;2022-09-09T01:16:48;14.90;99.90
48936;DHT22;34745;52.276;10.528;2022-09-09T01:19:23;15.00;99.90
48936;DHT22;34745;52.276;10.528;2022-09-09T01:22:00;15.00;99.90
48936;DHT22;34745;52.276;10.528;2022-09-09T01:24:38;15.00;99.90
48936;DHT22;34745;52.276;10.528;2022-09-09T01:27:09;15.00;99.90
48936;DHT22;34745;52.276;10.528;2022-09-09T01:29:37;15.00;99.90
48936;DHT22;34745;52.276;10.528;2022-09-09T01:32:39;14.90;99.90
48936;DHT22;34745;52.276;10.528;2022-09-09T01:35:11;14.90;99.90
48936;DHT22;34745;52.276;10.528;2022-09-09T01:37:39;14.90;99.90
48936;DHT22;34745;52.276;10.528;2022-09-09T01:44:13;14.80;99.90
48936;DHT22;34745;52.276;10.528;2022-09-09T01:46:40;14.80;99.90
48936;DHT22;34745;52.276;10.528;2022-09-09T01:49:08;14.80;99.90
48936;DHT22;34745;52.276;10.528;2022-09-09T01:51:36;14.80;99.90
48936;DHT22;34745;52.276;10.528;2022-09-09T01:54:05;14.80;99.90
48936;DHT22;34745;52.276;10.528;2022-09-09T01:56:40;14.70;99.90
48936;DHT22;34745;52.276;10.528;2022-09-09T01:59:24;14.70;99.90
48936;DHT22;34745;52.276;10.528;2022-09-09T02:02:01;14.70;99.90
48936;DHT22;34745;52.276;10.528;2022-09-09T02:04:37;14.80;99.90
48936;DHT22;34745;52.276;10.528;2022-09-09T02:07:15;14.80;99.90
48936;DHT22;34745;52.276;10.528;2022-09-09T02:09:48;14.80;99.90
48936;DHT22;34745;52.276;10.528;2022-09-09T02:12:18;14.80;99.90
48936;DHT22;34745;52.276;10.528;2022-09-09T02:14:52;14.80;99.90
48936;DHT22;34745;52.276;10.528;2022-09-09T02:17:25;14.80;99.90
48936;DHT22;34745;52.276;10.528;2022-09-09T02:19:57;14.90;99.90
48936;DHT22;34745;52.276;10.528;2022-09-09T02:22:28;14.90;99.90
48936;DHT22;34745;52.276;10.528;2022-09-09T02:24:57;14.90;99.90
48936;DHT22;34745;52.276;10.528;2022-09-09T02:27:26;15.00;99.90
48936;DHT22;34745;52.276;10.528;2022-09-09T02:29:56;14.90;99.90
48936;DHT22;34745;52.276;10.528;2022-09-09T02:32:27;14.90;99.90
48936;DHT22;34745;52.276;10.528;2022-09-09T02:34:59;14.90;99.90
48936;DHT22;34745;52.276;10.528;2022-09-09T02:37:31;14.90;99.90
48936;DHT22;34745;52.276;10.528;2022-09-09T02:39:58;15.00;99.90
48936;DHT22;34745;52.276;10.528;2022-09-09T02:42:26;15.00;99.90
48936;DHT22;34745;52.276;10.528;2022-09-09T02:44:54;14.90;99.90
48936;DHT22;34745;52.276;10.528;2022-09-09T02:47:28;15.10;99.90
48936;DHT22;34745;52.276;10.528;2022-09-09T02:50:02;15.00;99.90
48936;DHT22;34745;52.276;10.528;2022-09-09T02:52:35;14.90;99.90
48936;DHT22;34745;52.276;10.528;2022-09-09T02:55:10;14.80;99.90
48936;DHT22;34745;52.276;10.528;2022-09-09T02:57:39;14.90;99.90
48936;DHT22;34745;52.276;10.528;2022-09-09T03:00:11;14.80;99.90
48936;DHT22;34745;52.276;10.528;2022-09-09T03:02:38;14.90;99.90
48936;DHT22;34745;52.276;10.528;2022-09-09T03:05:06;14.90;99.90
48936;DHT22;34745;52.276;10.528;2022-09-09T03:07:33;14.90;99.90
48936;DHT22;34745;52.276;10.528;2022-09-09T03:10:01;14.90;99.90
48936;DHT22;34745;52.276;10.528;2022-09-09T03:12:27;14.90;99.90
48936;DHT22;34745;52.276;10.528;2022-09-09T03:14:55;14.90;99.90
48936;DHT22;34745;52.276;10.528;2022-09-09T03:17:23;14.90;99.90
48936;DHT22;34745;52.276;10.528;2022-09-09T03:19:51;14.90;99.90
48936;DHT22;34745;52.276;10.528;2022-09-09T03:22:21;14.90;99.90
48936;DHT22;34745;52.276;10.528;2022-09-09T03:24:48;14.90;99.90
48936;DHT22;34745;52.276;10.528;2022-09-09T03:27:15;14.90;99.90
48936;DHT22;34745;52.276;10.528;2022-09-09T03:29:42;14.90;99.90
48936;DHT22;34745;52.276;10.528;2022-09-09T03:32:09;14.90;99.90
48936;DHT22;34745;52.276;10.528;2022-09-09T03:34:39;14.80;99.90
48936;DHT22;34745;52.276;10.528;2022-09-09T03:37:06;14.80;99.90
48936;DHT22;34745;52.276;10.528;2022-09-09T03:39:33;14.80;99.90
48936;DHT22;34745;52.276;10.528;2022-09-09T03:42:00;14.80;99.90
48936;DHT22;34745;52.276;10.528;2022-09-09T03:44:30;14.80;99.90
48936;DHT22;34745;52.276;10.528;2022-09-09T03:46:57;14.80;99.90
48936;DHT22;34745;52.276;10.528;2022-09-09T03:49:27;14.80;99.90
48936;DHT22;34745;52.276;10.528;2022-09-09T03:51:58;14.80;99.90
48936;DHT22;34745;52.276;10.528;2022-09-09T03:54:25;14.80;99.90
48936;DHT22;34745;52.276;10.528;2022-09-09T03:56:52;14.80;99.90
48936;DHT22;34745;52.276;10.528;2022-09-09T03:59:19;14.80;99.90
48936;DHT22;34745;52.276;10.528;2022-09-09T04:01:47;14.80;99.90
48936;DHT22;34745;52.276;10.528;2022-09-09T04:04:14;14.90;99.90
48936;DHT22;34745;52.276;10.528;2022-09-09T04:06:41;14.90;99.90
48936;DHT22;34745;52.276;10.528;2022-09-09T04:09:10;14.90;99.90
48936;DHT22;34745;52.276;10.528;2022-09-09T04:11:37;15.00;99.90
48936;DHT22;34745;52.276;10.528;2022-09-09T04:14:04;15.00;99.90
48936;DHT22;34745;52.276;10.528;2022-09-09T04:16:32;14.90;99.90
48936;DHT22;34745;52.276;10.528;2022-09-09T04:19:00;15.00;99.90
48936;DHT22;34745;52.276;10.528;2022-09-09T04:21:27;15.00;99.90
48936;DHT22;34745;52.276;10.528;2022-09-09T04:23:54;15.00;99.90
48936;DHT22;34745;52.276;10.528;2022-09-09T04:26:23;15.00;99.90
48936;DHT22;34745;52.276;10.528;2022-09-09T04:28:50;15.10;99.90
48936;DHT22;34745;52.276;10.528;2022-09-09T04:31:19;15.10;99.90
48936;DHT22;34745;52.276;10.528;2022-09-09T04:33:48;15.10;99.90
48936;DHT22;34745;52.276;10.528;2022-09-09T04:36:16;15.10;99.90
48936;DHT22;34745;52.276;10.528;2022-09-09T04:38:45;15.10;99.90
48936;DHT22;34745;52.276;10.528;2022-09-09T04:41:12;15.10;99.90
48936;DHT22;34745;52.276;10.528;2022-09-09T04:43:41;15.10;99.90
48936;DHT22;34745;52.276;10.528;2022-09-09T04:46:07;15.10;99.90
48936;DHT22;34745;52.276;10.528;2022-09-09T04:48:34;15.10;99.90
48936;DHT22;34745;52.276;10.528;2022-09-09T04:51:03;15.10;99.90
48936;DHT22;34745;52.276;10.528;2022-09-09T04:53:31;15.10;99.90
48936;DHT22;34745;52.276;10.528;2022-09-09T04:56:02;15.10;99.90
48936;DHT22;34745;52.276;10.528;2022-09-09T04:58:29;15.10;99.90
48936;DHT22;34745;52.276;10.528;2022-09-09T05:01:04;15.00;99.90
48936;DHT22;34745;52.276;10.528;2022-09-09T05:03:31;15.20;99.90
48936;DHT22;34745;52.276;10.528;2022-09-09T05:06:06;15.20;99.90
48936;DHT22;34745;52.276;10.528;2022-09-09T05:08:33;15.20;99.90
48936;DHT22;34745;52.276;10.528;2022-09-09T05:11:01;15.20;99.90
48936;DHT22;34745;52.276;10.528;2022-09-09T05:13:28;15.20;99.90
48936;DHT22;34745;52.276;10.528;2022-09-09T05:15:55;15.20;99.90
48936;DHT22;34745;52.276;10.528;2022-09-09T05:18:24;15.30;99.90
48936;DHT22;34745;52.276;10.528;2022-09-09T05:20:51;15.30;99.90
48936;DHT22;34745;52.276;10.528;2022-09-09T05:23:19;15.40;99.90
48936;DHT22;34745;52.276;10.528;2022-09-09T05:25:55;15.40;99.90
48936;DHT22;34745;52.276;10.528;2022-09-09T05:28:22;15.40;99.90
48936;DHT22;34745;52.276;10.528;2022-09-09T05:30:55;15.40;99.90
48936;DHT22;34745;52.276;10.528;2022-09-09T05:33:24;15.40;99.90
48936;DHT22;34745;52.276;10.528;2022-09-09T05:35:57;15.50;99.90
48936;DHT22;34745;52.276;10.528;2022-09-09T05:38:24;15.50;99.90
48936;DHT22;34745;52.276;10.528;2022-09-09T05:40:55;15.50;99.90
48936;DHT22;34745;52.276;10.528;2022-09-09T05:43:23;15.60;99.90
48936;DHT22;34745;52.276;10.528;2022-09-09T05:45:59;15.60;99.90
48936;DHT22;34745;52.276;10.528;2022-09-09T05:48:30;15.70;99.90
48936;DHT22;34745;52.276;10.528;2022-09-09T05:50:57;15.70;99.90
48936;DHT22;34745;52.276;10.528;2022-09-09T05:53:25;15.60;99.90
48936;DHT22;34745;52.276;10.528;2022-09-09T05:55:59;15.70;99.90
48936;DHT22;34745;52.276;10.528;2022-09-09T05:58:26;15.70;99.90
48936;DHT22;34745;52.276;10.528;2022-09-09T06:00:59;15.60;99.90
48936;DHT22;34745;52.276;10.528;2022-09-09T06:03:27;15.70;99.90
48936;DHT22;34745;52.276;10.528;2022-09-09T06:06:00;15.60;99.90
48936;DHT22;34745;52.276;10.528;2022-09-09T06:08:28;15.60;99.90
48936;DHT22;34745;52.276;10.528;2022-09-09T06:11:01;15.70;99.90
48936;DHT22;34745;52.276;10.528;2022-09-09T06:13:29;15.70;99.90
48936;DHT22;34745;52.276;10.528;2022-09-09T06:15:57;15.70;99.90
48936;DHT22;34745;52.276;10.528;2022-09-09T06:18:25;15.90;99.90
48936;DHT22;34745;52.276;10.528;2022-09-09T06:20:57;15.80;99.90
48936;DHT22;34745;52.276;10.528;2022-09-09T06:23:26;15.90;99.90
48936;DHT22;34745;52.276;10.528;2022-09-09T06:26:01;15.90;99.90
48936;DHT22;34745;52.276;10.528;2022-09-09T06:28:29;16.00;99.90
48936;DHT22;34745;52.276;10.528;2022-09-09T06:30:59;16.00;99.90
48936;DHT22;34745;52.276;10.528;2022-09-09T06:33:30;16.10;99.90
48936;DHT22;34745;52.276;10.528;2022-09-09T06:35:57;16.20;99.90
48936;DHT22;34745;52.276;10.528;2022-09-09T06:38:25;16.20;99.90
48936;DHT22;34745;52.276;10.528;2022-09-09T06:40:53;16.20;99.90
48936;DHT22;34745;52.276;10.528;2022-09-09T06:43:21;16.30;99.90
48936;DHT22;34745;52.276;10.528;2022-09-09T06:45:55;16.30;99.90
48936;DHT22;34745;52.276;10.528;2022-09-09T06:48:23;16.40;99.90
48936;DHT22;34745;52.276;10.528;2022-09-09T06:50:50;16.40;99.90
48936;DHT22;34745;52.276;10.528;2022-09-09T06:53:17;16.40;99.90
48936;DHT22;34745;52.276;10.528;2022-09-09T06:55:47;16.30;99.90
48936;DHT22;34745;52.276;10.528;2022-09-09T06:58:14;16.40;99.90
48936;DHT22;34745;52.276;10.528;2022-09-09T07:00:43;16.40;99.90
48936;DHT22;34745;52.276;10.528;2022-09-09T07:03:10;16.40;99.90
48936;DHT22;34745;52.276;10.528;2022-09-09T07:05:37;16.50;99.90
48936;DHT22;34745;52.276;10.528;2022-09-09T07:08:05;16.60;99.90
48936;DHT22;34745;52.276;10.528;2022-09-09T07:10:43;16.70;99.90
48936;DHT22;34745;52.276;10.528;2022-09-09T07:13:12;16.80;99.90
48936;DHT22;34745;52.276;10.528;2022-09-09T07:15:42;16.90;99.90
48936;DHT22;34745;52.276;10.528;2022-09-09T07:18:09;16.90;99.90
48936;DHT22;34745;52.276;10.528;2022-09-09T07:20:37;16.90;99.90
48936;DHT22;34745;52.276;10.528;2022-09-09T07:23:05;16.90;99.90
48936;DHT22;34745;52.276;10.528;2022-09-09T07:25:31;17.00;99.90
48936;DHT22;34745;52.276;10.528;2022-09-09T07:27:58;17.10;99.90
48936;DHT22;34745;52.276;10.528;2022-09-09T07:30:26;17.20;99.90
48936;DHT22;34745;52.276;10.528;2022-09-09T07:32:53;17.30;99.90
48936;DHT22;34745;52.276;10.528;2022-09-09T07:35:23;17.40;99.90
48936;DHT22;34745;52.276;10.528;2022-09-09T07:37:50;17.50;99.90
48936;DHT22;34745;52.276;10.528;2022-09-09T07:40:17;17.70;96.80
48936;DHT22;34745;52.276;10.528;2022-09-09T07:42:44;17.80;94.10
48936;DHT22;34745;52.276;10.528;2022-09-09T07:45:14;17.90;56.70
48936;DHT22;34745;52.276;10.528;2022-09-09T07:47:43;17.90;73.70
48936;DHT22;34745;52.276;10.528;2022-09-09T07:50:13;17.90;35.80
48936;DHT22;34745;52.276;10.528;2022-09-09T07:52:40;17.90;1.00
48936;DHT22;34745;52.276;10.528;2022-09-09T07:55:08;18.00;1.00
48936;DHT22;34745;52.276;10.528;2022-09-09T07:57:35;18.00;1.00
48936;DHT22;34745;52.276;10.528;2022-09-09T08:00:03;18.20;1.00
48936;DHT22;34745;52.276;10.528;2022-09-09T08:02:30;18.30;1.00
48936;DHT22;34745;52.276;10.528;2022-09-09T08:04:59;18.40;1.00
48936;DHT22;34745;52.276;10.528;2022-09-09T08:07:26;18.50;1.00
48936;DHT22;34745;52.276;10.528;2022-09-09T08:09:53;18.60;1.00
48936;DHT22;34745;52.276;10.528;2022-09-09T08:12:22;18.60;1.00
48936;DHT22;34745;52.276;10.528;2022-09-09T08:14:50;18.70;1.00
48936;DHT22;34745;52.276;10.528;2022-09-09T08:17:18;18.80;1.00
48936;DHT22;34745;52.276;10.528;2022-09-09T08:19:51;18.90;1.00
48936;DHT22;34745;52.276;10.528;2022-09-09T08:22:19;18.70;1.00
48936;DHT22;34745;52.276;10.528;2022-09-09T08:24:46;18.60;1.00
48936;DHT22;34745;52.276;10.528;2022-09-09T08:27:14;18.50;1.00
48936;DHT22;34745;52.276;10.528;2022-09-09T08:29:44;18.50;1.00
48936;DHT22;34745;52.276;10.528;2022-09-09T08:32:11;18.40;1.00
48936;DHT22;34745;52.276;10.528;2022-09-09T08:34:38;18.40;1.00
48936;DHT22;34745;52.276;10.528;2022-09-09T08:37:07;18.40;1.00
48936;DHT22;34745;52.276;10.528;2022-09-09T08:39:36;18.30;1.00
48936;DHT22;34745;52.276;10.528;2022-09-09T08:42:19;18.30;1.00
48936;DHT22;34745;52.276;10.528;2022-09-09T08:45:18;18.40;1.00
48936;DHT22;34745;52.276;10.528;2022-09-09T08:48:06;18.40;1.00
48936;DHT22;34745;52.276;10.528;2022-09-09T08:50:37;18.60;1.00
48936;DHT22;34745;52.276;10.528;2022-09-09T08:53:13;18.60;1.00
48936;DHT22;34745;52.276;10.528;2022-09-09T08:55:47;18.70;1.00
48936;DHT22;34745;52.276;10.528;2022-09-09T08:58:17;18.80;1.00
48936;DHT22;34745;52.276;10.528;2022-09-09T09:01:02;18.90;1.00
48936;DHT22;34745;52.276;10.528;2022-09-09T09:03:43;18.90;1.00
48936;DHT22;34745;52.276;10.528;2022-09-09T09:06:26;19.00;1.00
48936;DHT22;34745;52.276;10.528;2022-09-09T09:09:01;19.00;1.00
48936;DHT22;34745;52.276;10.528;2022-09-09T09:11:36;18.90;1.00
48936;DHT22;34745;52.276;10.528;2022-09-09T09:14:10;18.90;1.00
48936;DHT22;34745;52.276;10.528;2022-09-09T09:16:43;18.90;1.00
48936;DHT22;34745;52.276;10.528;2022-09-09T09:19:16;18.90;1.00
48936;DHT22;34745;52.276;10.528;2022-09-09T09:21:49;19.00;1.00
48936;DHT22;34745;52.276;10.528;2022-09-09T09:24:19;19.10;1.00
48936;DHT22;34745;52.276;10.528;2022-09-09T09:26:49;19.30;1.00
48936;DHT22;34745;52.276;10.528;2022-09-09T09:29:18;19.20;1.00
48936;DHT22;34745;52.276;10.528;2022-09-09T09:31:50;19.10;1.00
48936;DHT22;34745;52.276;10.528;2022-09-09T09:34:18;19.10;1.00
48936;DHT22;34745;52.276;10.528;2022-09-09T09:36:52;19.20;1.00
48936;DHT22;34745;52.276;10.528;2022-09-09T09:39:24;19.30;1.00
48936;DHT22;34745;52.276;10.528;2022-09-09T09:42:15;19.30;1.00
48936;DHT22;34745;52.276;10.528;2022-09-09T09:44:47;19.40;1.00
48936;DHT22;34745;52.276;10.528;2022-09-09T09:47:16;19.40;1.00
48936;DHT22;34745;52.276;10.528;2022-09-09T09:49:51;19.20;1.00
48936;DHT22;34745;52.276;10.528;2022-09-09T09:52:22;19.10;1.00
48936;DHT22;34745;52.276;10.528;2022-09-09T09:54:51;19.20;1.00
48936;DHT22;34745;52.276;10.528;2022-09-09T09:57:25;19.30;1.00
48936;DHT22;34745;52.276;10.528;2022-09-09T10:00:12;19.40;1.00
48936;DHT22;34745;52.276;10.528;2022-09-09T10:02:42;19.50;1.00
48936;DHT22;34745;52.276;10.528;2022-09-09T10:05:14;19.50;1.00
48936;DHT22;34745;52.276;10.528;2022-09-09T10:07:43;19.50;1.00
48936;DHT22;34745;52.276;10.528;2022-09-09T10:10:16;19.50;1.00
48936;DHT22;34745;52.276;10.528;2022-09-09T10:12:57;19.50;1.00
48936;DHT22;34745;52.276;10.528;2022-09-09T10:15:35;19.50;1.00
48936;DHT22;34745;52.276;10.528;2022-09-09T10:18:18;19.70;1.00
48936;DHT22;34745;52.276;10.528;2022-09-09T10:20:56;19.80;1.00
48936;DHT22;34745;52.276;10.528;2022-09-09T10:23:42;19.90;1.00
48936;DHT22;34745;52.276;10.528;2022-09-09T10:26:26;20.00;1.00
48936;DHT22;34745;52.276;10.528;2022-09-09T10:29:13;19.90;1.00
48936;DHT22;34745;52.276;10.528;2022-09-09T10:31:51;20.00;1.00
48936;DHT22;34745;52.276;10.528;2022-09-09T10:34:38;20.00;1.00
48936;DHT22;34745;52.276;10.528;2022-09-09T10:37:20;20.00;1.00
48936;DHT22;34745;52.276;10.528;2022-09-09T10:39:55;20.00;1.00
48936;DHT22;34745;52.276;10.528;2022-09-09T10:42:31;20.20;1.00
48936;DHT22;34745;52.276;10.528;2022-09-09T10:45:07;20.30;1.00
48936;DHT22;34745;52.276;10.528;2022-09-09T10:47:55;20.30;1.00
48936;DHT22;34745;52.276;10.528;2022-09-09T10:53:32;20.60;1.00
48936;DHT22;34745;52.276;10.528;2022-09-09T10:56:10;20.80;1.00
48936;DHT22;34745;52.276;10.528;2022-09-09T10:58:46;20.90;1.00
48936;DHT22;34745;52.276;10.528;2022-09-09T11:01:24;20.60;1.00
48936;DHT22;34745;52.276;10.528;2022-09-09T11:03:56;20.40;1.00
48936;DHT22;34745;52.276;10.528;2022-09-09T11:06:29;20.30;1.00
48936;DHT22;34745;52.276;10.528;2022-09-09T11:09:01;20.20;1.00
48936;DHT22;34745;52.276;10.528;2022-09-09T11:11:34;20.20;1.00
48936;DHT22;34745;52.276;10.528;2022-09-09T11:14:11;20.20;1.00
48936;DHT22;34745;52.276;10.528;2022-09-09T11:16:49;20.20;1.00
48936;DHT22;34745;52.276;10.528;2022-09-09T11:19:23;20.20;1.00
48936;DHT22;34745;52.276;10.528;2022-09-09T11:21:53;20.20;1.00
48936;DHT22;34745;52.276;10.528;2022-09-09T11:24:26;20.20;1.00
48936;DHT22;34745;52.276;10.528;2022-09-09T11:27:00;20.30;1.00
48936;DHT22;34745;52.276;10.528;2022-09-09T11:30:13;20.60;1.00
48936;DHT22;34745;52.276;10.528;2022-09-09T11:33:31;20.40;1.00
48936;DHT22;34745;52.276;10.528;2022-09-09T11:36:23;20.30;1.00
48936;DHT22;34745;52.276;10.528;2022-09-09T11:38:56;20.30;1.00
48936;DHT22;34745;52.276;10.528;2022-09-09T11:41:34;20.20;1.00
48936;DHT22;34745;52.276;10.528;2022-09-09T11:44:17;20.00;1.00
48936;DHT22;34745;52.276;10.528;2022-09-09T11:46:50;20.00;1.00
48936;DHT22;34745;52.276;10.528;2022-09-09T11:49:28;19.90;1.00
48936;DHT22;34745;52.276;10.528;2022-09-09T11:51:58;19.90;1.00
48936;DHT22;34745;52.276;10.528;2022-09-09T11:54:29;20.00;1.00
48936;DHT22;34745;52.276;10.528;2022-09-09T11:56:57;20.00;1.00
48936;DHT22;34745;52.276;10.528;2022-09-09T11:59:26;19.90;1.00
48936;DHT22;34745;52.276;10.528;2022-09-09T12:01:58;19.90;1.00
48936;DHT22;34745;52.276;10.528;2022-09-09T12:04:44;20.00;1.00
48936;DHT22;34745;52.276;10.528;2022-09-09T12:07:31;20.10;1.00
48936;DHT22;34745;52.276;10.528;2022-09-09T12:10:04;20.20;1.00
48936;DHT22;34745;52.276;10.528;2022-09-09T12:12:34;20.80;1.00
48936;DHT22;34745;52.276;10.528;2022-09-09T12:15:26;21.40;1.00
48936;DHT22;34745;52.276;10.528;2022-09-09T12:17:57;22.00;1.00
48936;DHT22;34745;52.276;10.528;2022-09-09T12:20:34;22.20;1.00
48936;DHT22;34745;52.276;10.528;2022-09-09T12:23:18;22.60;1.00
48936;DHT22;34745;52.276;10.528;2022-09-09T12:26:00;22.50;1.00
48936;DHT22;34745;52.276;10.528;2022-09-09T12:28:52;22.40;1.00
48936;DHT22;34745;52.276;10.528;2022-09-09T12:31:24;22.40;1.00
48936;DHT22;34745;52.276;10.528;2022-09-09T12:33:52;22.60;1.00
48936;DHT22;34745;52.276;10.528;2022-09-09T12:36:23;22.70;1.00
48936;DHT22;34745;52.276;10.528;2022-09-09T12:38:51;22.60;1.00
48936;DHT22;34745;52.276;10.528;2022-09-09T12:41:21;22.80;1.00
48936;DHT22;34745;52.276;10.528;2022-09-09T12:43:50;23.20;1.00
48936;DHT22;34745;52.276;10.528;2022-09-09T12:46:27;23.60;1.00
48936;DHT22;34745;52.276;10.528;2022-09-09T12:48:58;23.30;1.00
48936;DHT22;34745;52.276;10.528;2022-09-09T12:51:29;23.20;1.00
48936;DHT22;34745;52.276;10.528;2022-09-09T12:53:57;23.10;1.00
48936;DHT22;34745;52.276;10.528;2022-09-09T12:56:27;22.70;1.00
48936;DHT22;34745;52.276;10.528;2022-09-09T12:58:57;22.80;1.00
48936;DHT22;34745;52.276;10.528;2022-09-09T13:01:26;23.00;1.00
48936;DHT22;34745;52.276;10.528;2022-09-09T13:03:55;22.80;1.00
48936;DHT22;34745;52.276;10.528;2022-09-09T13:06:24;22.70;1.00
48936;DHT22;34745;52.276;10.528;2022-09-09T13:08:58;22.80;1.00
48936;DHT22;34745;52.276;10.528;2022-09-09T13:11:29;22.80;1.00
48936;DHT22;34745;52.276;10.528;2022-09-09T13:13:57;21.90;1.00
48936;DHT22;34745;52.276;10.528;2022-09-09T13:16:26;21.50;1.00
48936;DHT22;34745;52.276;10.528;2022-09-09T13:18:57;21.20;1.00
48936;DHT22;34745;52.276;10.528;2022-09-09T13:21:33;21.10;1.00
48936;DHT22;34745;52.276;10.528;2022-09-09T13:24:03;20.90;1.00
48936;DHT22;34745;52.276;10.528;2022-09-09T13:26:30;20.90;1.00
48936;DHT22;34745;52.276;10.528;2022-09-09T13:29:13;20.90;1.00
48936;DHT22;34745;52.276;10.528;2022-09-09T13:31:45;21.10;1.00
48936;DHT22;34745;52.276;10.528;2022-09-09T13:34:12;21.20;1.00
48936;DHT22;34745;52.276;10.528;2022-09-09T13:36:40;21.80;1.00
48936;DHT22;34745;52.276;10.528;2022-09-09T13:39:16;22.80;1.00
48936;DHT22;34745;52.276;10.528;2022-09-09T13:41:45;23.30;1.00
48936;DHT22;34745;52.276;10.528;2022-09-09T13:44:19;23.30;1.00
48936;DHT22;34745;52.276;10.528;2022-09-09T13:47:00;23.60;1.00
48936;DHT22;34745;52.276;10.528;2022-09-09T13:49:35;24.50;1.00
48936;DHT22;34745;52.276;10.528;2022-09-09T13:52:10;25.30;1.00
48936;DHT22;34745;52.276;10.528;2022-09-09T13:54:41;25.40;1.00
48936;DHT22;34745;52.276;10.528;2022-09-09T13:57:16;24.80;1.00
48936;DHT22;34745;52.276;10.528;2022-09-09T13:59:46;24.70;1.00
48936;DHT22;34745;52.276;10.528;2022-09-09T14:02:31;24.90;1.00
48936;DHT22;34745;52.276;10.528;2022-09-09T14:05:00;24.80;1.00
48936;DHT22;34745;52.276;10.528;2022-09-09T14:07:28;24.80;1.00
48936;DHT22;34745;52.276;10.528;2022-09-09T14:09:57;24.70;1.00
48936;DHT22;34745;52.276;10.528;2022-09-09T14:12:28;24.90;1.00
48936;DHT22;34745;52.276;10.528;2022-09-09T14:14:58;25.10;99.90
48936;DHT22;34745;52.276;10.528;2022-09-09T14:17:32;25.20;1.40
48936;DHT22;34745;52.276;10.528;2022-09-09T14:20:00;25.10;1.00
48936;DHT22;34745;52.276;10.528;2022-09-09T14:22:28;25.10;1.00
48936;DHT22;34745;52.276;10.528;2022-09-09T14:24:57;25.10;1.00
48936;DHT22;34745;52.276;10.528;2022-09-09T14:27:25;25.30;1.00
48936;DHT22;34745;52.276;10.528;2022-09-09T14:29:54;24.90;1.00
48936;DHT22;34745;52.276;10.528;2022-09-09T14:32:23;24.90;1.00
48936;DHT22;34745;52.276;10.528;2022-09-09T14:34:51;24.60;1.00
48936;DHT22;34745;52.276;10.528;2022-09-09T14:37:19;24.50;1.00
48936;DHT22;34745;52.276;10.528;2022-09-09T14:39:50;24.40;1.00
48936;DHT22;34745;52.276;10.528;2022-09-09T14:42:20;24.20;1.00
48936;DHT22;34745;52.276;10.528;2022-09-09T14:44:52;24.00;1.00
48936;DHT22;34745;52.276;10.528;2022-09-09T14:47:20;23.70;1.00
48936;DHT22;34745;52.276;10.528;2022-09-09T14:49:51;23.50;1.00
48936;DHT22;34745;52.276;10.528;2022-09-09T14:52:19;23.10;1.00
48936;DHT22;34745;52.276;10.528;2022-09-09T14:54:49;22.80;1.00
48936;DHT22;34745;52.276;10.528;2022-09-09T14:57:16;22.50;1.00
48936;DHT22;34745;52.276;10.528;2022-09-09T14:59:45;22.30;1.00
48936;DHT22;34745;52.276;10.528;2022-09-09T15:02:14;22.10;1.00
48936;DHT22;34745;52.276;10.528;2022-09-09T15:04:45;22.00;1.00
48936;DHT22;34745;52.276;10.528;2022-09-09T15:07:17;21.90;1.00
48936;DHT22;34745;52.276;10.528;2022-09-09T15:09:46;21.90;1.00
48936;DHT22;34745;52.276;10.528;2022-09-09T15:12:24;22.00;1.00
48936;DHT22;34745;52.276;10.528;2022-09-09T15:14:54;22.00;1.00
48936;DHT22;34745;52.276;10.528;2022-09-09T15:17:22;22.00;1.00
48936;DHT22;34745;52.276;10.528;2022-09-09T15:19:54;21.90;1.00
48936;DHT22;34745;52.276;10.528;2022-09-09T15:22:22;21.90;1.00
48936;DHT22;34745;52.276;10.528;2022-09-09T15:24:52;21.90;1.00
48936;DHT22;34745;52.276;10.528;2022-09-09T15:27:20;21.90;1.00
48936;DHT22;34745;52.276;10.528;2022-09-09T15:29:53;21.80;1.00
48936;DHT22;34745;52.276;10.528;2022-09-09T15:32:21;21.80;1.00
48936;DHT22;34745;52.276;10.528;2022-09-09T15:34:49;21.80;1.00
48936;DHT22;34745;52.276;10.528;2022-09-09T15:37:21;21.80;1.00
48936;DHT22;34745;52.276;10.528;2022-09-09T15:39:49;21.70;1.00
48936;DHT22;34745;52.276;10.528;2022-09-09T15:42:18;21.80;1.00
48936;DHT22;34745;52.276;10.528;2022-09-09T15:44:45;21.80;1.00
48936;DHT22;34745;52.276;10.528;2022-09-09T15:47:14;21.80;1.00
48936;DHT22;34745;52.276;10.528;2022-09-09T15:49:42;21.90;1.00
48936;DHT22;34745;52.276;10.528;2022-09-09T15:52:10;22.00;1.00
48936;DHT22;34745;52.276;10.528;2022-09-09T15:54:38;22.00;1.00
48936;DHT22;34745;52.276;10.528;2022-09-09T15:57:07;21.90;1.00
48936;DHT22;34745;52.276;10.528;2022-09-09T15:59:36;21.90;1.00
48936;DHT22;34745;52.276;10.528;2022-09-09T16:02:03;21.90;1.00